createdAt,value
2023-03-04T00:02:24.674Z,100034.31
2023-03-04T00:04:53.022Z,100035.88
2023-03-04T00:07:21.188Z,100033.33
2023-03-04T00:09:53.720Z,100025.64
2023-03-04T00:12:22.865Z,100016.73
2023-03-04T00:14:51.639Z,100016.92
2023-03-04T00:17:25.572Z,100014.38
2023-03-04T00:19:55.267Z,100013.36
2023-03-04T00:22:24.117Z,100010.15
2023-03-04T00:24:54.961Z,100007.76
2023-03-04T00:27:23.945Z,100004.36
2023-03-04T00:29:52.191Z,100001.33
2023-03-04T00:32:21.241Z,99995.34
2023-03-04T00:34:49.828Z,99997.92
2023-03-04T00:37:17.997Z,99996.55
2023-03-04T00:39:46.853Z,100002.41
2023-03-04T00:42:16.815Z,100001.70
2023-03-04T00:44:46.605Z,99998.43
2023-03-04T00:47:14.962Z,99998.29
2023-03-04T00:49:43.436Z,99992.65
2023-03-04T00:52:11.680Z,99992.86
2023-03-04T00:54:43.033Z,99993.76
2023-03-04T00:57:11.373Z,99987.96
2023-03-04T00:59:40.897Z,99985.75
2023-03-04T01:02:11.427Z,99985.41
2023-03-04T01:04:42.047Z,99985.79
2023-03-04T01:07:11.454Z,99983.21
2023-03-04T01:09:45.436Z,99974.96
2023-03-04T01:12:14.256Z,99969.11
2023-03-04T01:14:43.151Z,99969.46
2023-03-04T01:17:17.559Z,99968.25
2023-03-04T01:19:45.873Z,99964.30
2023-03-04T01:22:16.786Z,99963.78
2023-03-04T01:24:47.248Z,99963.46
2023-03-04T01:27:16.106Z,99960.73
2023-03-04T01:29:45.414Z,99954.92
2023-03-04T01:32:13.681Z,99952.37
2023-03-04T01:34:43.966Z,99945.18
2023-03-04T01:37:15.904Z,99940.55
2023-03-04T01:39:44.963Z,99943.15
2023-03-04T01:42:19.098Z,99942.14
2023-03-04T01:44:48.402Z,99944.92
2023-03-04T01:47:19.166Z,99943.23
2023-03-04T01:49:49.455Z,99939.14
2023-03-04T01:52:18.211Z,99939.89
2023-03-04T01:54:46.413Z,99937.33
2023-03-04T01:57:23.086Z,99935.27
2023-03-04T02:00:32.455Z,99934.11
2023-03-04T02:03:07.314Z,99938.75
2023-03-04T02:05:36.472Z,99932.41
2023-03-04T02:08:05.341Z,99928.80
2023-03-04T02:10:37.994Z,99927.12
2023-03-04T02:13:07.068Z,99923.41
2023-03-04T02:15:35.726Z,99918.23
2023-03-04T02:18:18.809Z,99920.52
2023-03-04T02:21:13.733Z,99919.34
2023-03-04T02:23:49.501Z,99921.24
2023-03-04T02:26:21.870Z,99919.77
2023-03-04T02:28:52.976Z,99918.00
2023-03-04T02:31:28.849Z,99917.24
2023-03-04T02:33:58.919Z,99915.61
2023-03-04T02:36:29.044Z,99909.00
2023-03-04T02:39:03.466Z,99904.99
2023-03-04T02:41:32.306Z,99904.20
2023-03-04T02:44:02.228Z,99899.34
2023-03-04T02:46:31.394Z,99899.55
2023-03-04T02:49:00.152Z,99899.40
2023-03-04T02:51:29.738Z,99902.48
2023-03-04T02:53:58.398Z,99893.91
2023-03-04T02:56:26.928Z,99878.30
2023-03-04T02:58:55.316Z,99867.84
2023-03-04T03:01:29.893Z,99860.47
2023-03-04T03:03:58.220Z,99862.55
2023-03-04T03:06:27.125Z,99862.22
2023-03-04T03:08:57.268Z,99864.63
2023-03-04T03:11:26.784Z,99862.92
2023-03-04T03:13:56.161Z,99864.64
2023-03-04T03:16:30.593Z,99861.54
2023-03-04T03:18:58.817Z,99856.39
2023-03-04T03:21:27.041Z,99848.33
2023-03-04T03:23:55.376Z,99853.80
2023-03-04T03:26:23.598Z,99852.59
2023-03-04T03:28:54.353Z,99851.05
2023-03-04T03:31:23.380Z,99852.92
2023-03-04T03:33:59.400Z,99851.20
2023-03-04T03:36:28.692Z,99851.52
2023-03-04T03:38:56.962Z,99849.93
2023-03-04T03:41:25.203Z,99854.20
2023-03-04T03:43:53.410Z,99851.26
2023-03-04T03:46:21.670Z,99848.51
2023-03-04T03:48:50.161Z,99844.73
2023-03-04T03:51:26.530Z,99841.30
2023-03-04T03:53:55.512Z,99837.17
2023-03-04T03:56:23.911Z,99834.94
2023-03-04T03:58:52.077Z,99837.63
2023-03-04T04:01:20.306Z,99834.19
2023-03-04T04:03:48.922Z,99831.77
2023-03-04T04:06:17.454Z,99832.77
2023-03-04T04:08:51.120Z,99827.95
2023-03-04T04:11:19.279Z,99820.39
2023-03-04T04:13:47.496Z,99820.35
2023-03-04T04:16:16.447Z,99810.21
2023-03-04T04:18:45.091Z,99811.08
2023-03-04T04:21:17.576Z,99809.16
2023-03-04T04:23:46.266Z,99805.01
2023-03-04T04:26:19.157Z,99800.17
2023-03-04T04:28:48.391Z,99794.83
2023-03-04T04:31:16.888Z,99786.23
2023-03-04T04:33:46.747Z,99779.69
2023-03-04T04:36:15.541Z,99777.77
2023-03-04T04:38:49.673Z,99775.83
2023-03-04T04:41:23.154Z,99773.73
2023-03-04T04:43:51.245Z,99770.96
2023-03-04T04:46:20.148Z,99760.31
2023-03-04T04:48:48.337Z,99752.77
2023-03-04T04:51:16.568Z,99748.30
2023-03-04T04:53:44.993Z,99748.25
2023-03-04T04:56:16.674Z,99741.33
2023-03-04T04:58:45.511Z,99746.79
2023-03-04T05:01:14.416Z,99744.85
2023-03-04T05:03:44.894Z,99732.95
2023-03-04T05:06:13.463Z,99733.60
2023-03-04T05:08:41.693Z,99728.08
2023-03-04T05:11:10.068Z,99729.10
2023-03-04T05:13:40.284Z,99721.01
2023-03-04T05:16:09.768Z,99715.64
2023-03-04T05:18:38.123Z,99706.35
2023-03-04T05:21:10.007Z,99707.20
2023-03-04T05:23:40.127Z,99703.55
2023-03-04T05:26:08.951Z,99700.10
2023-03-04T05:28:37.387Z,99693.55
2023-03-04T05:31:05.827Z,99695.74
2023-03-04T05:33:35.231Z,99699.82
2023-03-04T05:36:04.776Z,99698.75
2023-03-04T05:38:32.998Z,99694.79
2023-03-04T05:41:03.519Z,99694.23
2023-03-04T05:43:38.475Z,99695.58
2023-03-04T05:46:07.096Z,99684.86
2023-03-04T05:48:35.289Z,99678.48
2023-03-04T05:51:03.861Z,99667.66
2023-03-04T05:53:32.525Z,99668.09
2023-03-04T05:56:06.436Z,99683.31
2023-03-04T05:58:35.150Z,99675.33
2023-03-04T06:01:03.707Z,99686.25
2023-03-04T06:03:32.144Z,99680.19
2023-03-04T06:06:00.296Z,99673.80
2023-03-04T06:08:29.882Z,99669.83
2023-03-04T06:10:59.220Z,99663.93
2023-03-04T06:13:34.032Z,99662.98
2023-03-04T06:16:03.507Z,99656.52
2023-03-04T06:18:33.783Z,99651.29
2023-03-04T06:21:08.663Z,99652.24
2023-03-04T06:23:37.869Z,99643.73
2023-03-04T06:26:09.442Z,99641.45
2023-03-04T06:28:38.723Z,99641.05
2023-03-04T06:31:06.952Z,99642.34
2023-03-04T06:33:35.582Z,99638.48
2023-03-04T06:36:04.780Z,99638.72
2023-03-04T06:38:32.990Z,99630.20
2023-03-04T06:41:09.068Z,99631.63
2023-03-04T06:43:37.645Z,99629.26
2023-03-04T06:46:07.367Z,99629.31
2023-03-04T06:48:36.641Z,99629.39
2023-03-04T06:51:09.350Z,99627.08
2023-03-04T06:53:39.626Z,99627.54
2023-03-04T06:56:16.467Z,99624.20
2023-03-04T06:58:46.259Z,99618.44
2023-03-04T07:01:21.810Z,99613.52
2023-03-04T07:03:50.460Z,99604.98
2023-03-04T07:06:20.931Z,99601.99
2023-03-04T07:08:55.938Z,99604.35
2023-03-04T07:11:25.467Z,99596.73
2023-03-04T07:13:53.759Z,99593.00
2023-03-04T07:16:23.315Z,99589.05
2023-03-04T07:18:51.984Z,99584.73
2023-03-04T07:21:26.024Z,99574.34
2023-03-04T07:23:54.197Z,99569.13
2023-03-04T07:26:22.462Z,99568.01
2023-03-04T07:28:53.060Z,99562.27
2023-03-04T07:31:21.448Z,99557.08
2023-03-04T07:33:50.996Z,99550.47
2023-03-04T07:36:20.146Z,99544.34
2023-03-04T07:38:49.333Z,99539.65
2023-03-04T07:41:18.225Z,99542.41
2023-03-04T07:43:46.906Z,99546.11
2023-03-04T07:46:15.252Z,99543.94
2023-03-04T07:48:43.887Z,99541.88
2023-03-04T07:51:15.162Z,99538.46
2023-03-04T07:53:46.401Z,99533.28
2023-03-04T07:56:16.781Z,99531.34
2023-03-04T07:58:45.481Z,99527.16
2023-03-04T08:01:16.000Z,99523.84
2023-03-04T08:03:44.553Z,99520.02
2023-03-04T08:06:14.537Z,99517.73
2023-03-04T08:08:48.169Z,99518.91
2023-03-04T08:11:20.992Z,99510.77
2023-03-04T08:13:49.397Z,99510.09
2023-03-04T08:16:19.133Z,99503.45
2023-03-04T08:18:49.862Z,99498.84
2023-03-04T08:21:19.569Z,99497.17
2023-03-04T08:23:49.398Z,99492.73
2023-03-04T08:26:20.723Z,99498.72
2023-03-04T08:28:49.410Z,99498.57
2023-03-04T08:31:19.998Z,99497.79
2023-03-04T08:33:49.733Z,99498.15
2023-03-04T08:36:17.950Z,99502.00
2023-03-04T08:38:47.166Z,99498.15
2023-03-04T08:41:16.975Z,99495.73
2023-03-04T08:43:45.181Z,99493.61
2023-03-04T08:46:13.425Z,99492.59
2023-03-04T08:48:42.189Z,99497.20
2023-03-04T08:51:13.328Z,99497.98
2023-03-04T08:53:41.753Z,99498.89
2023-03-04T08:56:10.593Z,99498.66
2023-03-04T08:58:39.122Z,99501.13
2023-03-04T09:01:10.031Z,99500.27
2023-03-04T09:03:46.090Z,99497.31
2023-03-04T09:06:15.818Z,99492.90
2023-03-04T09:09:09.675Z,99489.34
2023-03-04T09:11:41.981Z,99488.15
2023-03-04T09:14:11.275Z,99490.77
2023-03-04T09:16:40.068Z,99484.46
2023-03-04T09:19:08.356Z,99482.95
2023-03-04T09:21:38.417Z,99486.09
2023-03-04T09:24:07.068Z,99481.91
2023-03-04T09:26:35.494Z,99478.28
2023-03-04T09:29:04.257Z,99479.84
2023-03-04T09:31:34.274Z,99480.66
2023-03-04T09:34:04.105Z,99477.55
2023-03-04T09:36:33.365Z,99473.30
2023-03-04T09:39:07.307Z,99470.32
2023-03-04T09:41:50.409Z,99471.38
2023-03-04T09:44:38.514Z,99472.33
2023-03-04T09:47:11.678Z,99474.94
2023-03-04T09:49:41.515Z,99469.57
2023-03-04T09:52:28.169Z,99470.92
2023-03-04T09:55:18.609Z,99466.70
2023-03-04T09:57:53.364Z,99466.06
2023-03-04T10:00:25.439Z,99463.04
2023-03-04T10:03:06.327Z,99462.48
2023-03-04T10:05:36.704Z,99450.10
2023-03-04T10:08:28.582Z,99450.45
2023-03-04T10:10:59.232Z,99444.52
2023-03-04T10:13:40.823Z,99442.13
2023-03-04T10:16:10.004Z,99439.30
2023-03-04T10:18:41.360Z,99442.57
2023-03-04T10:21:42.344Z,99439.46
2023-03-04T10:24:15.325Z,99444.50
2023-03-04T10:26:50.674Z,99435.34
2023-03-04T10:29:21.225Z,99436.21
2023-03-04T10:31:50.090Z,99437.36
2023-03-04T10:34:18.961Z,99434.05
2023-03-04T10:36:54.950Z,99434.68
2023-03-04T10:39:39.657Z,99432.08
2023-03-04T10:42:14.572Z,99431.36
2023-03-04T10:44:56.959Z,99430.23
2023-03-04T10:47:29.417Z,99423.91
2023-03-04T10:50:00.971Z,99419.77
2023-03-04T10:52:38.840Z,99422.73
2023-03-04T10:55:17.160Z,99419.88
2023-03-04T10:57:48.680Z,99416.16
2023-03-04T11:00:32.233Z,99419.00
2023-03-04T11:03:36.180Z,99419.20
2023-03-04T11:06:24.646Z,99416.55
2023-03-04T11:08:58.435Z,99405.38
2023-03-04T11:11:48.411Z,99410.16
2023-03-04T11:14:24.647Z,99399.57
2023-03-04T11:17:01.061Z,99387.13
2023-03-04T11:19:38.672Z,99383.69
2023-03-04T11:22:07.691Z,99374.15
2023-03-04T11:24:36.401Z,99372.77
2023-03-04T11:27:50.518Z,99366.54
2023-03-04T11:30:48.397Z,99360.23
2023-03-04T11:33:29.535Z,99352.80
2023-03-04T11:36:10.169Z,99356.52
2023-03-04T11:38:47.985Z,99353.95
2023-03-04T11:41:39.907Z,99354.61
2023-03-04T11:44:09.025Z,99361.80
2023-03-04T11:46:52.799Z,99359.65
2023-03-04T11:50:00.553Z,99357.85
2023-03-04T11:52:51.640Z,99360.51
2023-03-04T11:55:22.604Z,99357.36
2023-03-04T11:57:59.278Z,99350.05
2023-03-04T12:00:36.091Z,99348.16
2023-03-04T12:03:42.485Z,99340.08
2023-03-04T12:06:38.948Z,99338.61
2023-03-04T12:09:31.697Z,99339.88
2023-03-04T12:12:06.255Z,99338.73
2023-03-04T12:14:59.206Z,99338.48
2023-03-04T12:17:39.574Z,99335.11
2023-03-04T12:20:40.200Z,99335.63
2023-03-04T12:23:22.469Z,99333.09
2023-03-04T12:25:59.616Z,99330.67
2023-03-04T12:28:53.149Z,99334.94
2023-03-04T12:31:24.418Z,99331.73
2023-03-04T12:34:14.450Z,99336.48
2023-03-04T12:37:17.886Z,99332.63
2023-03-04T12:40:20.638Z,99339.10
2023-03-04T12:43:04.143Z,99334.17
2023-03-04T12:45:43.893Z,99339.64
2023-03-04T12:49:02.184Z,99339.04
2023-03-04T12:51:39.604Z,99332.02
2023-03-04T12:54:24.142Z,99330.45
2023-03-04T12:56:55.868Z,99332.10
2023-03-04T12:59:24.293Z,99335.52
2023-03-04T13:02:14.548Z,99334.23
2023-03-04T13:05:04.928Z,99337.17
2023-03-04T13:07:50.859Z,99335.59
2023-03-04T13:10:23.580Z,99332.31
2023-03-04T13:12:54.537Z,99330.79
2023-03-04T13:15:43.303Z,99328.86
2023-03-04T13:18:36.063Z,99327.70
2023-03-04T13:21:11.909Z,99324.56
2023-03-04T13:23:40.821Z,99324.59
2023-03-04T13:26:32.218Z,99327.56
2023-03-04T13:29:18.963Z,99323.92
2023-03-04T13:32:00.809Z,99320.20
2023-03-04T13:34:49.251Z,99317.14
2023-03-04T13:37:35.084Z,99317.29
2023-03-04T13:40:47.674Z,99315.52
2023-03-04T13:43:28.363Z,99311.81
2023-03-04T13:45:56.699Z,99314.41
2023-03-04T13:48:36.505Z,99308.14
2023-03-04T13:51:04.852Z,99310.69
2023-03-04T13:53:44.810Z,99307.91
2023-03-04T13:56:29.320Z,99307.40
2023-03-04T13:59:19.319Z,99305.27
2023-03-04T14:01:47.994Z,99298.65
2023-03-04T14:04:22.790Z,99290.48
2023-03-04T14:06:52.715Z,99295.75
2023-03-04T14:09:27.332Z,99293.52
2023-03-04T14:11:57.314Z,99293.87
2023-03-04T14:14:31.430Z,99291.17
2023-03-04T14:17:05.096Z,99289.91
2023-03-04T14:19:38.608Z,99285.90
2023-03-04T14:22:23.895Z,99289.54
2023-03-04T14:25:23.128Z,99291.56
2023-03-04T14:28:04.558Z,99296.75
2023-03-04T14:30:42.846Z,99302.55
2023-03-04T14:33:18.342Z,99301.45
2023-03-04T14:35:49.705Z,99295.86
2023-03-04T14:38:23.929Z,99301.85
2023-03-04T14:40:56.983Z,99301.63
2023-03-04T14:43:26.565Z,99304.63
2023-03-04T14:45:56.524Z,99304.73
2023-03-04T14:48:31.022Z,99303.59
2023-03-04T14:51:30.271Z,99300.38
2023-03-04T14:54:32.140Z,99293.64
2023-03-04T14:57:21.674Z,99291.08
2023-03-04T14:59:50.175Z,99290.59
2023-03-04T15:02:35.338Z,99290.52
2023-03-04T15:05:31.389Z,99286.80
2023-03-04T15:08:07.029Z,99286.00
2023-03-04T15:10:37.171Z,99288.67
2023-03-04T15:13:07.573Z,99292.84
2023-03-04T15:15:40.648Z,99292.00
2023-03-04T15:18:21.220Z,99292.36
2023-03-04T15:21:05.881Z,99291.52
2023-03-04T15:23:34.151Z,99293.97
2023-03-04T15:26:04.710Z,99297.31
2023-03-04T15:28:37.775Z,99296.29
2023-03-04T15:31:06.140Z,99294.25
2023-03-04T15:33:39.316Z,99296.55
2023-03-04T15:36:11.133Z,99297.45
2023-03-04T15:38:48.714Z,99290.98
2023-03-04T15:41:25.891Z,99290.00
2023-03-04T15:43:54.866Z,99294.25
2023-03-04T15:46:23.473Z,99294.85
2023-03-04T15:48:52.723Z,99290.96
2023-03-04T15:51:22.385Z,99286.48
2023-03-04T15:53:55.968Z,99286.50
2023-03-04T15:56:32.104Z,99284.84
2023-03-04T15:59:14.943Z,99282.44
2023-03-04T16:01:51.157Z,99282.51
2023-03-04T16:04:20.398Z,99280.84
2023-03-04T16:06:49.587Z,99283.28
2023-03-04T16:09:20.092Z,99284.17
2023-03-04T16:11:49.058Z,99279.39
2023-03-04T16:14:19.084Z,99285.26
2023-03-04T16:16:48.143Z,99281.50
2023-03-04T16:19:19.941Z,99276.52
2023-03-04T16:21:50.971Z,99277.94
2023-03-04T16:24:25.062Z,99274.53
2023-03-04T16:26:54.214Z,99270.09
2023-03-04T16:29:24.420Z,99273.23
2023-03-04T16:31:54.401Z,99273.23
2023-03-04T16:34:22.860Z,99273.92
2023-03-04T16:36:51.551Z,99272.21
2023-03-04T16:39:25.915Z,99274.98
2023-03-04T16:41:58.483Z,99269.16
2023-03-04T16:44:27.274Z,99270.95
2023-03-04T16:47:02.772Z,99267.07
2023-03-04T16:49:32.337Z,99264.89
2023-03-04T16:52:01.006Z,99259.27
2023-03-04T16:54:31.961Z,99262.36
2023-03-04T16:57:00.882Z,99260.34
2023-03-04T16:59:29.970Z,99254.84
2023-03-04T17:01:58.631Z,99251.96
2023-03-04T17:04:29.401Z,99249.61
2023-03-04T17:06:59.082Z,99244.15
2023-03-04T17:09:27.676Z,99242.48
2023-03-04T17:11:59.555Z,99239.05
2023-03-04T17:14:31.039Z,99234.21
2023-03-04T17:17:00.673Z,99234.39
2023-03-04T17:19:29.847Z,99232.68
2023-03-04T17:21:59.489Z,99225.13
2023-03-04T17:24:28.005Z,99223.90
2023-03-04T17:26:58.339Z,99226.16
2023-03-04T17:29:26.734Z,99225.14
2023-03-04T17:31:54.966Z,99219.49
2023-03-04T17:34:23.230Z,99224.86
2023-03-04T17:36:51.573Z,99223.83
2023-03-04T17:39:20.021Z,99222.29
2023-03-04T17:41:51.366Z,99220.55
2023-03-04T17:44:24.778Z,99216.62
2023-03-04T17:46:53.105Z,99213.89
2023-03-04T17:49:21.693Z,99213.80
2023-03-04T17:51:50.135Z,99215.90
2023-03-04T17:54:18.647Z,99219.37
2023-03-04T17:56:47.015Z,99221.79
2023-03-04T17:59:16.130Z,99218.00
2023-03-04T18:01:47.813Z,99214.40
2023-03-04T18:04:16.874Z,99214.27
2023-03-04T18:06:46.497Z,99212.27
2023-03-04T18:09:14.669Z,99211.80
2023-03-04T18:11:43.384Z,99206.68
2023-03-04T18:14:13.079Z,99207.22
2023-03-04T18:16:44.388Z,99209.14
2023-03-04T18:19:13.806Z,99196.28
2023-03-04T18:21:44.487Z,99192.16
2023-03-04T18:24:12.921Z,99190.79
2023-03-04T18:26:41.105Z,99186.86
2023-03-04T18:29:10.865Z,99184.33
2023-03-04T18:31:39.786Z,99190.23
2023-03-04T18:34:08.052Z,99195.05
2023-03-04T18:36:36.601Z,99196.08
2023-03-04T18:39:07.586Z,99196.94
2023-03-04T18:41:36.466Z,99186.77
2023-03-04T18:44:06.054Z,99184.71
2023-03-04T18:46:55.621Z,99191.79
2023-03-04T18:49:24.269Z,99186.30
2023-03-04T18:51:52.482Z,99182.01
2023-03-04T18:54:21.229Z,99181.89
2023-03-04T18:56:55.814Z,99175.39
2023-03-04T18:59:31.503Z,99174.58
2023-03-04T19:02:01.761Z,99171.02
2023-03-04T19:04:30.111Z,99169.70
2023-03-04T19:07:00.442Z,99170.98
2023-03-04T19:09:28.891Z,99174.96
2023-03-04T19:11:57.112Z,99171.23
2023-03-04T19:14:25.678Z,99165.25
2023-03-04T19:16:54.646Z,99166.30
2023-03-04T19:19:23.010Z,99163.74
2023-03-04T19:21:51.263Z,99160.67
2023-03-04T19:24:19.992Z,99156.73
2023-03-04T19:26:54.782Z,99155.55
2023-03-04T19:29:23.157Z,99159.88
2023-03-04T19:31:51.335Z,99154.68
2023-03-04T19:34:19.717Z,99145.21
2023-03-04T19:36:48.143Z,99139.17
2023-03-04T19:39:18.645Z,99135.60
2023-03-04T19:41:47.614Z,99135.11
2023-03-04T19:44:17.447Z,99135.48
2023-03-04T19:46:46.163Z,99135.39
2023-03-04T19:49:14.473Z,99130.96
2023-03-04T19:51:43.250Z,99126.92
2023-03-04T19:54:11.567Z,99125.05
2023-03-04T19:56:40.754Z,99126.44
2023-03-04T19:59:09.250Z,99118.89
2023-03-04T20:01:40.741Z,99119.25
2023-03-04T20:04:13.862Z,99122.69
2023-03-04T20:06:45.942Z,99121.98
2023-03-04T20:09:14.528Z,99114.05
2023-03-04T20:11:56.683Z,99120.77
2023-03-04T20:14:28.202Z,99112.70
2023-03-04T20:17:01.582Z,99109.99
2023-03-04T20:19:30.432Z,99118.27
2023-03-04T20:21:58.810Z,99113.63
2023-03-04T20:24:27.555Z,99109.70
2023-03-04T20:26:55.836Z,99106.45
2023-03-04T20:29:26.926Z,99109.73
2023-03-04T20:31:55.102Z,99109.55
2023-03-04T20:34:25.606Z,99105.73
2023-03-04T20:36:54.130Z,99104.16
2023-03-04T20:39:29.182Z,99106.05
2023-03-04T20:41:58.733Z,99103.80
2023-03-04T20:44:31.650Z,99102.73
2023-03-04T20:47:01.908Z,99100.17
2023-03-04T20:49:30.580Z,99098.22
2023-03-04T20:52:06.429Z,99092.73
2023-03-04T20:54:36.086Z,99100.13
2023-03-04T20:57:08.104Z,99116.11
2023-03-04T20:59:38.394Z,99155.92
2023-03-04T21:02:14.573Z,99200.83
2023-03-04T21:04:44.060Z,99194.89
2023-03-04T21:07:12.388Z,99198.84
2023-03-04T21:09:44.841Z,99199.98
2023-03-04T21:12:14.613Z,99209.27
2023-03-04T21:14:45.471Z,99214.39
2023-03-04T21:17:14.310Z,99221.36
2023-03-04T21:19:43.614Z,99222.98
2023-03-04T21:22:16.569Z,99233.63
2023-03-04T21:24:52.438Z,99233.14
2023-03-04T21:27:22.273Z,99234.88
2023-03-04T21:29:50.640Z,99238.64
2023-03-04T21:32:25.793Z,99240.47
2023-03-04T21:34:54.987Z,99250.35
2023-03-04T21:37:25.160Z,99247.07
2023-03-04T21:39:55.075Z,99246.65
2023-03-04T21:42:23.753Z,99252.22
2023-03-04T21:44:57.387Z,99264.67
2023-03-04T21:47:26.606Z,99272.69
2023-03-04T21:49:54.846Z,99277.28
2023-03-04T21:52:23.101Z,99274.81
2023-03-04T21:54:51.319Z,99275.42
2023-03-04T21:57:19.733Z,99275.27
2023-03-04T21:59:48.489Z,99274.33
2023-03-04T22:02:21.345Z,99273.95
2023-03-04T22:04:50.205Z,99272.77
2023-03-04T22:07:19.150Z,99268.23
2023-03-04T22:09:47.936Z,99266.23
2023-03-04T22:12:19.707Z,99261.15
2023-03-04T22:14:48.217Z,99257.25
2023-03-04T22:17:16.609Z,99260.09
2023-03-04T22:19:45.170Z,99255.31
2023-03-04T22:22:13.396Z,99260.31
2023-03-04T22:24:42.693Z,99258.20
2023-03-04T22:27:10.888Z,99259.88
2023-03-04T22:29:42.612Z,99267.45
2023-03-04T22:32:10.987Z,99266.76
2023-03-04T22:34:40.529Z,99266.59
2023-03-04T22:37:09.115Z,99263.16
2023-03-04T22:39:37.314Z,99262.29
2023-03-04T22:42:05.745Z,99264.67
2023-03-04T22:44:34.678Z,99271.58
2023-03-04T22:47:04.269Z,99276.24
2023-03-04T22:49:33.473Z,99275.09
2023-03-04T22:52:07.424Z,99289.05
2023-03-04T22:54:35.600Z,99297.85
2023-03-04T22:57:03.853Z,99299.42
2023-03-04T22:59:32.174Z,99304.05
2023-03-04T23:02:04.955Z,99309.04
2023-03-04T23:04:33.630Z,99316.98
2023-03-04T23:07:02.032Z,99322.73
2023-03-04T23:09:30.680Z,99328.60
2023-03-04T23:11:58.877Z,99334.27
2023-03-04T23:14:27.275Z,99334.59
2023-03-04T23:16:56.306Z,99339.11
2023-03-04T23:19:26.051Z,99336.96
2023-03-04T23:21:57.297Z,99338.77
2023-03-04T23:24:26.832Z,99346.42
2023-03-04T23:26:55.121Z,99348.42
2023-03-04T23:29:23.328Z,99355.59
2023-03-04T23:31:51.870Z,99351.59
2023-03-04T23:34:26.232Z,99360.30
2023-03-04T23:36:54.455Z,99363.34
2023-03-04T23:39:22.835Z,99357.74
2023-03-04T23:41:51.136Z,99357.69
2023-03-04T23:44:19.638Z,99364.17
2023-03-04T23:46:47.844Z,99367.90
2023-03-04T23:49:18.027Z,99368.83
2023-03-04T23:51:46.404Z,99371.30
2023-03-04T23:54:14.800Z,99369.36
2023-03-04T23:56:43.433Z,99366.41
2023-03-04T23:59:12.501Z,99363.28
